BCS839 EDDF-OBBI
Flight info
| Callsign | BCS839 |
|---|---|
| Flight time | N/A |
| Altitude | 31000 |
| Route | SULUS4L SULUS L984 OKG DCT ROMIS DCT PITOK/N0485F330 DCT PERIT DCT BADOR DCT APROB DCT ADORU UN739 TUMER UT38 VESAR/N0483F340 DCT PASOS/N0486F330 L550 KARIK B411 DEESA Y415 TAMRO N318 NADEN/N0444F210 N318 LADNA |
| Aircraft | B77L/H-SDE1E2E3FGHIJ2J3J4J5M1RWXY/LB1D1 |
Departure
| Time | N/A |
|---|---|
| Airport | Frankfurt Main Airport (EDDF) |
Arrival
| Time | 2026-05-06 14:02 |
|---|---|
| Airport | Bahrain International Airport (OBBI) |
| Time | Latitude | Longitude | Altitude | Speed | Heading |
|---|---|---|---|---|---|
| 2026-05-06 11:19 | 35.66974 | 33.95237 | 33073 ft | 490 kts | 197° |
| 2026-05-06 11:20 | 35.63636 | 33.94363 | 33080 ft | 490 kts | 197° |
| 2026-05-06 11:20 | 35.56958 | 33.92643 | 33076 ft | 491 kts | 196° |
| 2026-05-06 11:21 | 35.50268 | 33.90934 | 33071 ft | 490 kts | 196° |
| 2026-05-06 11:21 | 35.43606 | 33.89233 | 33072 ft | 488 kts | 196° |
| 2026-05-06 11:22 | 35.36971 | 33.87537 | 33074 ft | 486 kts | 197° |
| 2026-05-06 11:22 | 35.30348 | 33.85846 | 33052 ft | 485 kts | 197° |
| 2026-05-06 11:23 | 35.23755 | 33.84166 | 33068 ft | 484 kts | 197° |
| 2026-05-06 11:23 | 35.17170 | 33.82490 | 33073 ft | 484 kts | 197° |
| 2026-05-06 11:24 | 35.10582 | 33.80816 | 33050 ft | 484 kts | 197° |
| 2026-05-06 11:24 | 35.04031 | 33.79154 | 33069 ft | 484 kts | 197° |
| 2026-05-06 11:25 | 34.97433 | 33.77484 | 33070 ft | 485 kts | 197° |
| 2026-05-06 11:25 | 34.90836 | 33.75816 | 33052 ft | 485 kts | 197° |
| 2026-05-06 11:26 | 34.84225 | 33.74149 | 33075 ft | 485 kts | 197° |
| 2026-05-06 11:26 | 34.77619 | 33.72485 | 33075 ft | 485 kts | 197° |
| 2026-05-06 11:27 | 34.71007 | 33.70822 | 33055 ft | 485 kts | 198° |
| 2026-05-06 11:27 | 34.64403 | 33.69164 | 33072 ft | 484 kts | 198° |
| 2026-05-06 11:28 | 34.57804 | 33.67509 | 33070 ft | 485 kts | 198° |
| 2026-05-06 11:28 | 34.51201 | 33.65857 | 33063 ft | 484 kts | 198° |
| 2026-05-06 11:29 | 34.44603 | 33.64208 | 33080 ft | 484 kts | 198° |
| 2026-05-06 11:29 | 34.39119 | 33.62840 | 33080 ft | 484 kts | 198° |
| 2026-05-06 11:30 | 34.32523 | 33.61196 | 33055 ft | 484 kts | 198° |
| 2026-05-06 11:30 | 34.25926 | 33.59556 | 33079 ft | 483 kts | 198° |
| 2026-05-06 11:31 | 34.18270 | 33.57655 | 33088 ft | 483 kts | 198° |
| 2026-05-06 11:31 | 34.12753 | 33.56286 | 33085 ft | 483 kts | 198° |
| 2026-05-06 11:32 | 34.06168 | 33.54657 | 33082 ft | 483 kts | 199° |
| 2026-05-06 11:32 | 33.99593 | 33.53032 | 33089 ft | 482 kts | 199° |
| 2026-05-06 11:33 | 33.93019 | 33.51409 | 33090 ft | 482 kts | 199° |
| 2026-05-06 11:33 | 33.86451 | 33.49792 | 33086 ft | 481 kts | 199° |
| 2026-05-06 11:34 | 33.79937 | 33.48189 | 33088 ft | 481 kts | 199° |
| 2026-05-06 11:34 | 33.73387 | 33.46580 | 33091 ft | 481 kts | 199° |
| 2026-05-06 11:35 | 33.66839 | 33.44974 | 33088 ft | 479 kts | 198° |
| 2026-05-06 11:35 | 33.60308 | 33.43375 | 33092 ft | 479 kts | 198° |
| 2026-05-06 11:36 | 33.53777 | 33.41779 | 33095 ft | 479 kts | 198° |
| 2026-05-06 11:36 | 33.47247 | 33.40184 | 33095 ft | 479 kts | 198° |
| 2026-05-06 11:37 | 33.40717 | 33.38593 | 33091 ft | 479 kts | 198° |
| 2026-05-06 11:37 | 33.34181 | 33.37002 | 33087 ft | 479 kts | 198° |
| 2026-05-06 11:38 | 33.27650 | 33.35415 | 33086 ft | 479 kts | 198° |
| 2026-05-06 11:38 | 33.21125 | 33.33832 | 33090 ft | 479 kts | 198° |
| 2026-05-06 11:39 | 33.14601 | 33.32252 | 33093 ft | 478 kts | 198° |
| 2026-05-06 11:39 | 33.08080 | 33.30675 | 33073 ft | 478 kts | 198° |
| 2026-05-06 11:40 | 33.01565 | 33.29102 | 33082 ft | 477 kts | 198° |
| 2026-05-06 11:40 | 32.95070 | 33.27536 | 33089 ft | 476 kts | 198° |
| 2026-05-06 11:41 | 32.88585 | 33.25974 | 33056 ft | 476 kts | 198° |
| 2026-05-06 11:41 | 32.82102 | 33.24415 | 33088 ft | 475 kts | 198° |
| 2026-05-06 11:42 | 32.75622 | 33.22859 | 33091 ft | 475 kts | 198° |
| 2026-05-06 11:42 | 32.69185 | 33.21316 | 33089 ft | 475 kts | 198° |
| 2026-05-06 11:43 | 32.62704 | 33.19765 | 33085 ft | 475 kts | 198° |
| 2026-05-06 11:43 | 32.56232 | 33.18218 | 33089 ft | 475 kts | 198° |
| 2026-05-06 11:44 | 32.46522 | 33.15901 | 33079 ft | 474 kts | 198° |
| 2026-05-06 11:44 | 32.40048 | 33.14359 | 33092 ft | 474 kts | 198° |
| 2026-05-06 11:45 | 32.33570 | 33.12818 | 33093 ft | 475 kts | 198° |
| 2026-05-06 11:45 | 32.27087 | 33.11278 | 33094 ft | 475 kts | 198° |
| 2026-05-06 11:46 | 32.20516 | 33.10144 | 33090 ft | 482 kts | 189° |
| 2026-05-06 11:46 | 32.13753 | 33.10323 | 33094 ft | 488 kts | 183° |
| 2026-05-06 11:47 | 32.06964 | 33.10744 | 33095 ft | 488 kts | 183° |
| 2026-05-06 11:47 | 32.00174 | 33.11116 | 33092 ft | 488 kts | 184° |
| 2026-05-06 11:48 | 31.93393 | 33.11462 | 33094 ft | 488 kts | 184° |
| 2026-05-06 11:48 | 31.86615 | 33.11807 | 33093 ft | 487 kts | 184° |
| 2026-05-06 11:49 | 31.79841 | 33.12154 | 33088 ft | 487 kts | 184° |
| 2026-05-06 11:49 | 31.73080 | 33.12494 | 33088 ft | 486 kts | 184° |
| 2026-05-06 11:50 | 31.66327 | 33.12828 | 33085 ft | 485 kts | 184° |
| 2026-05-06 11:50 | 31.59628 | 33.13161 | 33095 ft | 485 kts | 184° |
| 2026-05-06 11:51 | 31.52888 | 33.13496 | 33077 ft | 485 kts | 184° |
| 2026-05-06 11:51 | 31.46150 | 33.13831 | 33088 ft | 484 kts | 184° |
| 2026-05-06 11:52 | 31.39411 | 33.14354 | 33088 ft | 491 kts | 176° |
| 2026-05-06 11:52 | 31.32797 | 33.16665 | 33096 ft | 503 kts | 161° |
| 2026-05-06 11:53 | 31.26574 | 33.20524 | 33099 ft | 507 kts | 156° |
| 2026-05-06 11:53 | 31.20399 | 33.24528 | 33095 ft | 507 kts | 157° |
| 2026-05-06 11:54 | 31.14209 | 33.28479 | 33095 ft | 507 kts | 157° |
| 2026-05-06 11:54 | 31.08010 | 33.32382 | 33094 ft | 506 kts | 157° |
| 2026-05-06 11:55 | 31.01806 | 33.36270 | 33063 ft | 506 kts | 157° |
| 2026-05-06 11:55 | 30.95612 | 33.40147 | 33076 ft | 505 kts | 157° |
| 2026-05-06 11:56 | 30.89441 | 33.44008 | 33095 ft | 504 kts | 157° |
| 2026-05-06 11:56 | 30.83260 | 33.47870 | 33090 ft | 503 kts | 157° |
| 2026-05-06 11:57 | 30.77100 | 33.51712 | 33083 ft | 503 kts | 158° |
| 2026-05-06 11:57 | 30.70928 | 33.55557 | 33066 ft | 503 kts | 157° |
| 2026-05-06 11:58 | 30.64764 | 33.59391 | 33066 ft | 503 kts | 158° |
| 2026-05-06 11:58 | 30.58596 | 33.63222 | 33074 ft | 503 kts | 158° |
| 2026-05-06 11:59 | 30.52418 | 33.67053 | 33070 ft | 503 kts | 158° |
| 2026-05-06 11:59 | 30.46239 | 33.70880 | 33064 ft | 503 kts | 158° |
| 2026-05-06 12:00 | 30.40073 | 33.74693 | 33064 ft | 502 kts | 157° |
| 2026-05-06 12:00 | 30.33920 | 33.78493 | 33068 ft | 501 kts | 158° |
| 2026-05-06 12:01 | 30.27774 | 33.82283 | 33060 ft | 500 kts | 158° |
| 2026-05-06 12:01 | 30.21675 | 33.86038 | 33060 ft | 500 kts | 158° |
| 2026-05-06 12:02 | 30.15534 | 33.89814 | 33035 ft | 500 kts | 157° |
| 2026-05-06 12:02 | 30.09400 | 33.93580 | 33049 ft | 500 kts | 157° |
| 2026-05-06 12:03 | 30.03258 | 33.97346 | 33049 ft | 499 kts | 158° |
| 2026-05-06 12:03 | 29.97121 | 34.01104 | 33054 ft | 500 kts | 158° |
| 2026-05-06 12:04 | 29.90980 | 34.04859 | 33050 ft | 499 kts | 158° |
| 2026-05-06 12:04 | 29.84840 | 34.08608 | 33030 ft | 499 kts | 158° |
| 2026-05-06 12:05 | 29.78706 | 34.12349 | 33046 ft | 499 kts | 158° |
| 2026-05-06 12:05 | 29.72570 | 34.16086 | 33045 ft | 499 kts | 158° |
| 2026-05-06 12:06 | 29.66449 | 34.19858 | 33035 ft | 499 kts | 153° |
| 2026-05-06 12:06 | 29.63753 | 34.22433 | 33030 ft | 512 kts | 135° |
| 2026-05-06 12:06 | 29.61793 | 34.25880 | 33045 ft | 522 kts | 117° |
| 2026-05-06 12:07 | 29.60659 | 34.29862 | 33041 ft | 530 kts | 101° |
| 2026-05-06 12:07 | 29.60459 | 34.34097 | 33047 ft | 531 kts | 89° |
| 2026-05-06 12:07 | 29.60689 | 34.42602 | 33037 ft | 534 kts | 90° |
| 2026-05-06 12:08 | 29.60725 | 34.51152 | 33034 ft | 537 kts | 91° |
| 2026-05-06 12:08 | 29.60567 | 34.55411 | 33013 ft | 532 kts | 102° |
| 2026-05-06 12:08 | 29.59549 | 34.59453 | 33034 ft | 524 kts | 118° |
| 2026-05-06 12:09 | 29.57765 | 34.62997 | 33033 ft | 516 kts | 131° |
| 2026-05-06 12:09 | 29.55350 | 34.65980 | 33018 ft | 504 kts | 146° |
| 2026-05-06 12:09 | 29.49787 | 34.70879 | 33016 ft | 507 kts | 146° |
| 2026-05-06 12:10 | 29.45078 | 34.76962 | 33042 ft | 523 kts | 122° |
| 2026-05-06 12:10 | 29.43604 | 34.80809 | 33009 ft | 531 kts | 110° |
| 2026-05-06 12:10 | 29.42861 | 34.84965 | 33023 ft | 535 kts | 99° |
| 2026-05-06 12:11 | 29.42173 | 34.93490 | 33005 ft | 538 kts | 92° |
| 2026-05-06 12:11 | 29.42613 | 35.02076 | 32993 ft | 540 kts | 82° |
| 2026-05-06 12:12 | 29.44356 | 35.10442 | 32996 ft | 539 kts | 74° |
| 2026-05-06 12:12 | 29.46427 | 35.18693 | 32991 ft | 538 kts | 74° |
| 2026-05-06 12:13 | 29.48423 | 35.26952 | 33002 ft | 536 kts | 75° |
| 2026-05-06 12:13 | 29.50335 | 35.35141 | 33027 ft | 535 kts | 75° |
| 2026-05-06 12:14 | 29.52269 | 35.43447 | 33011 ft | 535 kts | 75° |
| 2026-05-06 12:14 | 29.54182 | 35.51641 | 32989 ft | 536 kts | 75° |
| 2026-05-06 12:15 | 29.56131 | 35.59906 | 33019 ft | 536 kts | 75° |
| 2026-05-06 12:15 | 29.58081 | 35.68194 | 33016 ft | 537 kts | 75° |
| 2026-05-06 12:16 | 29.60023 | 35.76480 | 33011 ft | 537 kts | 75° |
| 2026-05-06 12:16 | 29.61789 | 35.84830 | 33008 ft | 538 kts | 80° |
| 2026-05-06 12:17 | 29.63155 | 35.93272 | 33000 ft | 538 kts | 81° |
| 2026-05-06 12:17 | 29.64501 | 36.01752 | 33006 ft | 539 kts | 81° |
| 2026-05-06 12:18 | 29.65876 | 36.10227 | 32992 ft | 539 kts | 80° |
| 2026-05-06 12:18 | 29.67258 | 36.18698 | 33000 ft | 539 kts | 80° |
| 2026-05-06 12:19 | 29.68634 | 36.27178 | 33004 ft | 540 kts | 81° |
| 2026-05-06 12:19 | 29.69772 | 36.34235 | 33005 ft | 540 kts | 81° |
| 2026-05-06 12:20 | 29.71145 | 36.42726 | 32999 ft | 540 kts | 81° |
| 2026-05-06 12:20 | 29.72527 | 36.51214 | 32984 ft | 540 kts | 81° |
| 2026-05-06 12:21 | 29.73901 | 36.59698 | 33001 ft | 539 kts | 81° |
| 2026-05-06 12:21 | 29.74596 | 36.68244 | 33008 ft | 535 kts | 94° |
| 2026-05-06 12:22 | 29.73791 | 36.76691 | 32996 ft | 528 kts | 106° |
| 2026-05-06 12:22 | 29.72095 | 36.84900 | 33019 ft | 528 kts | 107° |
| 2026-05-06 12:23 | 29.70384 | 36.93123 | 33012 ft | 529 kts | 107° |
| 2026-05-06 12:23 | 29.68714 | 37.01367 | 33007 ft | 530 kts | 107° |
| 2026-05-06 12:24 | 29.67060 | 37.09625 | 33008 ft | 530 kts | 107° |
| 2026-05-06 12:24 | 29.65413 | 37.17824 | 33012 ft | 530 kts | 107° |
| 2026-05-06 12:25 | 29.63749 | 37.26070 | 33004 ft | 529 kts | 107° |
| 2026-05-06 12:25 | 29.62081 | 37.34285 | 33022 ft | 527 kts | 107° |
| 2026-05-06 12:26 | 29.60415 | 37.42474 | 33024 ft | 526 kts | 107° |
| 2026-05-06 12:26 | 29.58747 | 37.50647 | 33012 ft | 526 kts | 107° |
| 2026-05-06 12:27 | 29.57072 | 37.58822 | 33026 ft | 525 kts | 107° |
| 2026-05-06 12:27 | 29.55393 | 37.66990 | 33033 ft | 526 kts | 107° |
| 2026-05-06 12:28 | 29.53706 | 37.75168 | 33023 ft | 526 kts | 108° |
| 2026-05-06 12:28 | 29.52014 | 37.83348 | 33036 ft | 527 kts | 108° |
| 2026-05-06 12:29 | 29.50315 | 37.91535 | 33037 ft | 528 kts | 108° |
| 2026-05-06 12:29 | 29.48609 | 37.99734 | 33024 ft | 528 kts | 108° |
| 2026-05-06 12:30 | 29.47072 | 38.07984 | 33039 ft | 529 kts | 105° |
| 2026-05-06 12:30 | 29.45656 | 38.16272 | 33045 ft | 529 kts | 105° |
| 2026-05-06 12:31 | 29.44223 | 38.24503 | 33041 ft | 529 kts | 106° |
| 2026-05-06 12:31 | 29.42748 | 38.32775 | 33044 ft | 529 kts | 106° |
| 2026-05-06 12:32 | 29.41259 | 38.41045 | 33047 ft | 530 kts | 106° |
| 2026-05-06 12:32 | 29.39767 | 38.49311 | 33055 ft | 529 kts | 106° |
| 2026-05-06 12:33 | 29.38272 | 38.57576 | 33059 ft | 530 kts | 106° |
| 2026-05-06 12:33 | 29.36770 | 38.65850 | 33050 ft | 530 kts | 106° |
| 2026-05-06 12:34 | 29.35264 | 38.74119 | 33057 ft | 530 kts | 107° |
| 2026-05-06 12:34 | 29.33751 | 38.82387 | 33064 ft | 530 kts | 107° |
| 2026-05-06 12:35 | 29.32233 | 38.90663 | 33051 ft | 531 kts | 107° |
| 2026-05-06 12:35 | 29.30575 | 38.98892 | 33070 ft | 530 kts | 109° |
| 2026-05-06 12:36 | 29.28816 | 39.07099 | 33068 ft | 531 kts | 109° |
| 2026-05-06 12:36 | 29.27065 | 39.15318 | 33057 ft | 532 kts | 109° |
| 2026-05-06 12:37 | 29.26193 | 39.19447 | 33205 ft | 535 kts | 109° |
| 2026-05-06 12:37 | 29.25320 | 39.23593 | 33574 ft | 535 kts | 109° |
| 2026-05-06 12:37 | 29.24451 | 39.27724 | 33982 ft | 533 kts | 109° |
| 2026-05-06 12:37 | 29.23585 | 39.31840 | 34336 ft | 531 kts | 109° |
| 2026-05-06 12:38 | 29.22718 | 39.35946 | 34642 ft | 530 kts | 110° |
| 2026-05-06 12:38 | 29.21848 | 39.40053 | 34877 ft | 532 kts | 110° |
| 2026-05-06 12:38 | 29.20971 | 39.44174 | 35002 ft | 534 kts | 110° |
| 2026-05-06 12:38 | 29.20091 | 39.48307 | 35045 ft | 535 kts | 110° |
| 2026-05-06 12:39 | 29.18336 | 39.56553 | 35084 ft | 533 kts | 110° |
| 2026-05-06 12:39 | 29.16580 | 39.64769 | 35073 ft | 531 kts | 110° |
| 2026-05-06 12:40 | 29.14823 | 39.72961 | 35085 ft | 530 kts | 110° |
| 2026-05-06 12:40 | 29.13062 | 39.81144 | 35084 ft | 530 kts | 110° |
| 2026-05-06 12:41 | 29.11295 | 39.89334 | 35093 ft | 531 kts | 110° |
| 2026-05-06 12:41 | 29.09826 | 39.97643 | 35089 ft | 535 kts | 106° |
| 2026-05-06 12:42 | 29.08545 | 40.05982 | 35071 ft | 537 kts | 106° |
| 2026-05-06 12:42 | 29.07241 | 40.14387 | 35087 ft | 538 kts | 107° |
| 2026-05-06 12:43 | 29.05900 | 40.22812 | 35092 ft | 539 kts | 107° |
| 2026-05-06 12:43 | 29.04543 | 40.31245 | 35085 ft | 540 kts | 107° |
| 2026-05-06 12:44 | 29.03179 | 40.39697 | 35093 ft | 541 kts | 107° |
| 2026-05-06 12:44 | 29.01810 | 40.48162 | 35075 ft | 542 kts | 107° |
| 2026-05-06 12:45 | 29.00435 | 40.56627 | 35080 ft | 542 kts | 107° |
| 2026-05-06 12:46 | 28.98362 | 40.69330 | 35087 ft | 543 kts | 107° |
| 2026-05-06 12:46 | 28.96973 | 40.77802 | 35083 ft | 542 kts | 107° |
| 2026-05-06 12:47 | 28.95581 | 40.86265 | 35084 ft | 542 kts | 107° |
| 2026-05-06 12:47 | 28.94186 | 40.94716 | 35069 ft | 541 kts | 107° |
| 2026-05-06 12:48 | 28.92789 | 41.03151 | 35087 ft | 541 kts | 107° |
| 2026-05-06 12:48 | 28.91386 | 41.11581 | 35084 ft | 541 kts | 107° |
| 2026-05-06 12:49 | 28.89978 | 41.20008 | 35067 ft | 540 kts | 108° |
| 2026-05-06 12:49 | 28.88567 | 41.28420 | 35065 ft | 540 kts | 108° |
| 2026-05-06 12:50 | 28.87152 | 41.36825 | 35053 ft | 539 kts | 108° |
| 2026-05-06 12:50 | 28.85733 | 41.45223 | 35054 ft | 539 kts | 108° |
| 2026-05-06 12:51 | 28.84320 | 41.53559 | 35061 ft | 539 kts | 108° |
| 2026-05-06 12:51 | 28.82895 | 41.61947 | 35048 ft | 538 kts | 108° |
| 2026-05-06 12:52 | 28.81464 | 41.70330 | 35050 ft | 539 kts | 108° |
| 2026-05-06 12:52 | 28.80028 | 41.78712 | 35036 ft | 539 kts | 108° |
| 2026-05-06 12:53 | 28.78588 | 41.87102 | 35042 ft | 539 kts | 108° |
| 2026-05-06 12:53 | 28.77138 | 41.95501 | 35043 ft | 540 kts | 108° |
| 2026-05-06 12:54 | 28.75685 | 42.03893 | 35032 ft | 540 kts | 108° |
| 2026-05-06 12:54 | 28.74223 | 42.12300 | 35050 ft | 541 kts | 108° |
| 2026-05-06 12:55 | 28.72755 | 42.20713 | 35025 ft | 541 kts | 108° |
| 2026-05-06 12:55 | 28.71281 | 42.29128 | 35027 ft | 542 kts | 108° |
| 2026-05-06 12:56 | 28.69799 | 42.37555 | 35026 ft | 542 kts | 108° |
| 2026-05-06 12:56 | 28.68314 | 42.45973 | 35020 ft | 542 kts | 108° |
| 2026-05-06 12:57 | 28.66825 | 42.54376 | 35018 ft | 542 kts | 108° |
| 2026-05-06 12:57 | 28.65321 | 42.62774 | 34999 ft | 539 kts | 110° |
| 2026-05-06 12:58 | 28.63046 | 42.70776 | 35016 ft | 525 kts | 121° |
| 2026-05-06 12:58 | 28.59780 | 42.78087 | 35023 ft | 516 kts | 128° |
| 2026-05-06 12:59 | 28.56347 | 42.85256 | 35017 ft | 518 kts | 127° |
| 2026-05-06 12:59 | 28.52950 | 42.92433 | 35012 ft | 519 kts | 127° |
| 2026-05-06 13:00 | 28.49546 | 42.99682 | 35011 ft | 520 kts | 127° |
| 2026-05-06 13:00 | 28.46141 | 43.06933 | 35009 ft | 520 kts | 127° |
| 2026-05-06 13:01 | 28.42725 | 43.14187 | 34994 ft | 520 kts | 127° |
| 2026-05-06 13:01 | 28.39307 | 43.21428 | 35007 ft | 521 kts | 127° |
| 2026-05-06 13:02 | 28.35888 | 43.28658 | 35000 ft | 520 kts | 127° |
| 2026-05-06 13:02 | 28.32457 | 43.35902 | 34995 ft | 520 kts | 127° |
| 2026-05-06 13:03 | 28.29026 | 43.43132 | 34972 ft | 520 kts | 127° |
| 2026-05-06 13:03 | 28.25594 | 43.50353 | 34982 ft | 520 kts | 127° |
| 2026-05-06 13:04 | 28.22163 | 43.57562 | 34986 ft | 519 kts | 127° |
| 2026-05-06 13:04 | 28.18726 | 43.64757 | 34969 ft | 519 kts | 128° |
| 2026-05-06 13:05 | 28.15261 | 43.71920 | 34986 ft | 519 kts | 128° |
| 2026-05-06 13:05 | 28.11780 | 43.79090 | 34986 ft | 519 kts | 128° |
| 2026-05-06 13:06 | 28.08305 | 43.86251 | 34973 ft | 519 kts | 128° |
| 2026-05-06 13:06 | 28.04828 | 43.93413 | 34991 ft | 518 kts | 128° |
| 2026-05-06 13:07 | 28.01347 | 44.00567 | 34986 ft | 519 kts | 128° |
| 2026-05-06 13:07 | 27.97885 | 44.07672 | 34977 ft | 519 kts | 128° |
| 2026-05-06 13:08 | 27.94397 | 44.14819 | 34981 ft | 519 kts | 128° |
| 2026-05-06 13:08 | 27.90932 | 44.22001 | 34983 ft | 520 kts | 128° |
| 2026-05-06 13:09 | 27.88043 | 44.28030 | 34974 ft | 521 kts | 128° |
| 2026-05-06 13:09 | 27.84588 | 44.35223 | 34978 ft | 521 kts | 128° |
| 2026-05-06 13:10 | 27.81123 | 44.42408 | 34946 ft | 521 kts | 128° |
| 2026-05-06 13:10 | 27.77657 | 44.49581 | 34963 ft | 520 kts | 128° |
| 2026-05-06 13:11 | 27.74184 | 44.56753 | 34969 ft | 521 kts | 128° |
| 2026-05-06 13:11 | 27.70708 | 44.63926 | 34957 ft | 521 kts | 128° |
| 2026-05-06 13:12 | 27.67252 | 44.71047 | 34962 ft | 521 kts | 127° |
| 2026-05-06 13:12 | 27.64329 | 44.78704 | 34957 ft | 535 kts | 116° |
| 2026-05-06 13:13 | 27.62572 | 44.86953 | 34965 ft | 544 kts | 108° |
| 2026-05-06 13:13 | 27.61154 | 44.95282 | 34962 ft | 544 kts | 108° |
| 2026-05-06 13:14 | 27.59670 | 45.03636 | 34959 ft | 543 kts | 109° |
| 2026-05-06 13:14 | 27.58139 | 45.11970 | 34957 ft | 543 kts | 109° |
| 2026-05-06 13:15 | 27.56596 | 45.20346 | 34953 ft | 542 kts | 109° |
| 2026-05-06 13:15 | 27.55065 | 45.28599 | 34956 ft | 541 kts | 109° |
| 2026-05-06 13:16 | 27.53503 | 45.36886 | 34947 ft | 540 kts | 109° |
| 2026-05-06 13:16 | 27.51937 | 45.45162 | 34955 ft | 540 kts | 109° |
| 2026-05-06 13:17 | 27.50371 | 45.53433 | 34954 ft | 540 kts | 109° |
| 2026-05-06 13:17 | 27.48801 | 45.61706 | 34946 ft | 541 kts | 109° |
| 2026-05-06 13:18 | 27.47222 | 45.69995 | 34938 ft | 541 kts | 109° |
| 2026-05-06 13:18 | 27.45639 | 45.78276 | 34947 ft | 541 kts | 110° |
| 2026-05-06 13:19 | 27.44049 | 45.86568 | 34955 ft | 542 kts | 110° |
| 2026-05-06 13:19 | 27.42453 | 45.94862 | 34952 ft | 543 kts | 110° |
| 2026-05-06 13:20 | 27.40849 | 46.03169 | 34948 ft | 544 kts | 110° |
| 2026-05-06 13:20 | 27.39240 | 46.11477 | 34935 ft | 543 kts | 110° |
| 2026-05-06 13:21 | 27.37626 | 46.19783 | 34938 ft | 544 kts | 110° |
| 2026-05-06 13:21 | 27.36007 | 46.28091 | 34944 ft | 544 kts | 110° |
| 2026-05-06 13:22 | 27.34431 | 46.36417 | 34944 ft | 545 kts | 108° |
| 2026-05-06 13:22 | 27.32989 | 46.44799 | 34917 ft | 546 kts | 108° |
| 2026-05-06 13:23 | 27.31561 | 46.53183 | 34930 ft | 546 kts | 108° |
| 2026-05-06 13:23 | 27.30115 | 46.61500 | 34929 ft | 545 kts | 108° |
| 2026-05-06 13:24 | 27.28642 | 46.69857 | 34929 ft | 545 kts | 108° |
| 2026-05-06 13:24 | 27.27163 | 46.78217 | 34924 ft | 545 kts | 108° |
| 2026-05-06 13:25 | 27.25680 | 46.86579 | 34917 ft | 545 kts | 108° |
| 2026-05-06 13:25 | 27.24194 | 46.94932 | 34923 ft | 545 kts | 108° |
| 2026-05-06 13:26 | 27.22704 | 47.03281 | 34918 ft | 545 kts | 108° |
| 2026-05-06 13:26 | 27.21209 | 47.11628 | 34916 ft | 545 kts | 108° |
| 2026-05-06 13:27 | 27.19708 | 47.19974 | 34915 ft | 545 kts | 108° |
| 2026-05-06 13:27 | 27.18203 | 47.28311 | 34904 ft | 545 kts | 108° |
| 2026-05-06 13:28 | 27.16694 | 47.36646 | 34910 ft | 545 kts | 108° |
| 2026-05-06 13:28 | 27.15180 | 47.44978 | 34900 ft | 545 kts | 108° |
| 2026-05-06 13:29 | 27.13661 | 47.53312 | 34904 ft | 545 kts | 108° |
| 2026-05-06 13:29 | 27.12121 | 47.61632 | 34896 ft | 545 kts | 108° |
| 2026-05-06 13:30 | 27.10565 | 47.69951 | 34888 ft | 544 kts | 108° |
| 2026-05-06 13:30 | 27.09008 | 47.78264 | 34892 ft | 544 kts | 108° |
| 2026-05-06 13:31 | 27.07450 | 47.86568 | 34895 ft | 544 kts | 108° |
| 2026-05-06 13:31 | 27.05889 | 47.94868 | 34889 ft | 544 kts | 108° |
| 2026-05-06 13:32 | 27.04211 | 48.03124 | 34868 ft | 542 kts | 110° |
| 2026-05-06 13:32 | 27.02363 | 48.11251 | 34889 ft | 541 kts | 111° |
| 2026-05-06 13:33 | 27.00501 | 48.19428 | 34880 ft | 542 kts | 110° |
| 2026-05-06 13:33 | 26.98668 | 48.27627 | 34872 ft | 542 kts | 110° |
| 2026-05-06 13:34 | 26.96843 | 48.35828 | 34879 ft | 542 kts | 110° |
| 2026-05-06 13:34 | 26.95010 | 48.44029 | 34869 ft | 542 kts | 110° |
| 2026-05-06 13:35 | 26.93171 | 48.52226 | 34872 ft | 542 kts | 110° |
| 2026-05-06 13:35 | 26.91325 | 48.60422 | 34876 ft | 543 kts | 110° |
| 2026-05-06 13:36 | 26.89474 | 48.68626 | 34866 ft | 543 kts | 110° |
| 2026-05-06 13:36 | 26.87631 | 48.76833 | 34868 ft | 545 kts | 109° |
| 2026-05-06 13:37 | 26.86081 | 48.85164 | 34871 ft | 547 kts | 107° |
| 2026-05-06 13:37 | 26.84645 | 48.93533 | 34859 ft | 547 kts | 107° |
| 2026-05-06 13:38 | 26.83154 | 49.01880 | 34858 ft | 546 kts | 107° |
| 2026-05-06 13:38 | 26.82385 | 49.06067 | 34233 ft | 554 kts | 107° |
| 2026-05-06 13:38 | 26.81598 | 49.10310 | 33401 ft | 557 kts | 107° |
| 2026-05-06 13:38 | 26.80811 | 49.14558 | 32519 ft | 557 kts | 107° |
| 2026-05-06 13:39 | 26.80028 | 49.18801 | 31639 ft | 557 kts | 106° |
| 2026-05-06 13:39 | 26.79244 | 49.23050 | 30729 ft | 558 kts | 106° |
| 2026-05-06 13:39 | 26.78475 | 49.27228 | 29805 ft | 537 kts | 105° |
| 2026-05-06 13:39 | 26.77742 | 49.31217 | 29193 ft | 512 kts | 105° |
| 2026-05-06 13:40 | 26.77020 | 49.35101 | 28612 ft | 509 kts | 105° |
| 2026-05-06 13:40 | 26.76247 | 49.38952 | 28059 ft | 506 kts | 109° |
| 2026-05-06 13:40 | 26.75204 | 49.42713 | 27514 ft | 507 kts | 113° |
| 2026-05-06 13:40 | 26.74055 | 49.46454 | 26955 ft | 509 kts | 113° |
| 2026-05-06 13:41 | 26.72906 | 49.50181 | 26388 ft | 505 kts | 112° |
| 2026-05-06 13:41 | 26.71779 | 49.53885 | 25828 ft | 501 kts | 112° |
| 2026-05-06 13:41 | 26.70673 | 49.57565 | 25277 ft | 497 kts | 112° |
| 2026-05-06 13:41 | 26.69584 | 49.61210 | 24727 ft | 493 kts | 112° |
| 2026-05-06 13:42 | 26.68503 | 49.64822 | 24165 ft | 489 kts | 111° |
| 2026-05-06 13:42 | 26.67423 | 49.68413 | 23623 ft | 486 kts | 111° |
| 2026-05-06 13:42 | 26.66345 | 49.71979 | 23013 ft | 482 kts | 111° |
| 2026-05-06 13:42 | 26.65276 | 49.75511 | 22437 ft | 477 kts | 111° |
| 2026-05-06 13:43 | 26.64219 | 49.79004 | 21892 ft | 472 kts | 111° |
| 2026-05-06 13:43 | 26.63172 | 49.82463 | 21373 ft | 467 kts | 111° |
| 2026-05-06 13:43 | 26.62134 | 49.85887 | 20855 ft | 463 kts | 111° |
| 2026-05-06 13:43 | 26.61121 | 49.89277 | 20355 ft | 458 kts | 110° |
| 2026-05-06 13:44 | 26.60129 | 49.92643 | 19855 ft | 454 kts | 110° |
| 2026-05-06 13:44 | 26.59146 | 49.95978 | 19362 ft | 450 kts | 110° |
| 2026-05-06 13:44 | 26.58144 | 49.99274 | 18859 ft | 447 kts | 111° |
| 2026-05-06 13:44 | 26.57148 | 50.02479 | 18337 ft | 424 kts | 111° |
| 2026-05-06 13:45 | 26.56192 | 50.05582 | 17851 ft | 421 kts | 110° |
| 2026-05-06 13:45 | 26.54332 | 50.11738 | 16848 ft | 416 kts | 110° |
| 2026-05-06 13:45 | 26.53414 | 50.14782 | 16360 ft | 412 kts | 110° |
| 2026-05-06 13:46 | 26.52501 | 50.17805 | 15900 ft | 409 kts | 110° |
| 2026-05-06 13:46 | 26.51607 | 50.20760 | 15444 ft | 406 kts | 110° |
| 2026-05-06 13:46 | 26.50704 | 50.23737 | 14985 ft | 403 kts | 109° |
| 2026-05-06 13:46 | 26.49808 | 50.26689 | 14533 ft | 400 kts | 109° |
| 2026-05-06 13:47 | 26.48919 | 50.29619 | 14116 ft | 396 kts | 110° |
| 2026-05-06 13:47 | 26.48040 | 50.32508 | 13725 ft | 391 kts | 109° |
| 2026-05-06 13:47 | 26.47235 | 50.35378 | 13249 ft | 384 kts | 103° |
| 2026-05-06 13:47 | 26.47045 | 50.38328 | 12792 ft | 381 kts | 86° |
| 2026-05-06 13:48 | 26.47536 | 50.41210 | 12361 ft | 376 kts | 71° |
| 2026-05-06 13:48 | 26.48508 | 50.43891 | 11947 ft | 371 kts | 66° |
| 2026-05-06 13:48 | 26.49523 | 50.46544 | 11525 ft | 373 kts | 66° |
| 2026-05-06 13:48 | 26.50533 | 50.49223 | 11137 ft | 375 kts | 67° |
| 2026-05-06 13:49 | 26.51522 | 50.51890 | 10974 ft | 368 kts | 66° |
| 2026-05-06 13:49 | 26.52476 | 50.54489 | 10812 ft | 359 kts | 67° |
| 2026-05-06 13:49 | 26.53411 | 50.57048 | 10651 ft | 348 kts | 67° |
| 2026-05-06 13:49 | 26.54252 | 50.59521 | 10514 ft | 332 kts | 76° |
| 2026-05-06 13:50 | 26.54338 | 50.62016 | 10387 ft | 317 kts | 103° |
| 2026-05-06 13:50 | 26.53543 | 50.64237 | 10224 ft | 303 kts | 126° |
| 2026-05-06 13:50 | 26.52156 | 50.65920 | 10028 ft | 288 kts | 143° |
| 2026-05-06 13:50 | 26.50607 | 50.67307 | 9724 ft | 284 kts | 144° |
| 2026-05-06 13:51 | 26.49065 | 50.68661 | 9387 ft | 280 kts | 144° |
| 2026-05-06 13:51 | 26.47531 | 50.70007 | 9068 ft | 283 kts | 144° |
| 2026-05-06 13:51 | 26.45973 | 50.71377 | 8766 ft | 287 kts | 143° |
| 2026-05-06 13:51 | 26.44406 | 50.72761 | 8433 ft | 287 kts | 144° |
| 2026-05-06 13:52 | 26.42852 | 50.74141 | 8103 ft | 284 kts | 142° |
| 2026-05-06 13:52 | 26.41322 | 50.75504 | 7781 ft | 280 kts | 142° |
| 2026-05-06 13:52 | 26.39811 | 50.76852 | 7468 ft | 276 kts | 142° |
| 2026-05-06 13:52 | 26.38322 | 50.78181 | 7158 ft | 272 kts | 143° |
| 2026-05-06 13:53 | 26.36848 | 50.79498 | 6846 ft | 272 kts | 142° |
| 2026-05-06 13:53 | 26.35356 | 50.80831 | 6559 ft | 278 kts | 142° |
| 2026-05-06 13:53 | 26.33835 | 50.82189 | 6225 ft | 282 kts | 142° |
| 2026-05-06 13:53 | 26.32821 | 50.83094 | 5995 ft | 282 kts | 142° |
| 2026-05-06 13:54 | 26.30810 | 50.84890 | 5568 ft | 277 kts | 142° |
| 2026-05-06 13:54 | 26.29316 | 50.86223 | 5254 ft | 273 kts | 141° |
| 2026-05-06 13:54 | 26.27842 | 50.87537 | 4939 ft | 270 kts | 141° |
| 2026-05-06 13:54 | 26.26389 | 50.88834 | 4623 ft | 265 kts | 141° |
| 2026-05-06 13:55 | 26.25142 | 50.90284 | 4420 ft | 254 kts | 126° |
| 2026-05-06 13:55 | 26.24138 | 50.91900 | 4442 ft | 258 kts | 123° |
| 2026-05-06 13:55 | 26.23147 | 50.93610 | 4464 ft | 265 kts | 126° |
| 2026-05-06 13:55 | 26.21767 | 50.94948 | 4430 ft | 268 kts | 159° |
| 2026-05-06 13:56 | 26.20543 | 50.95234 | 4439 ft | 268 kts | 182° |
| 2026-05-06 13:56 | 26.18772 | 50.94665 | 4452 ft | 268 kts | 212° |
| 2026-05-06 13:56 | 26.17410 | 50.93262 | 4461 ft | 270 kts | 236° |
| 2026-05-06 13:56 | 26.16661 | 50.91407 | 4466 ft | 271 kts | 258° |
| 2026-05-06 13:57 | 26.16601 | 50.89247 | 4169 ft | 278 kts | 278° |
| 2026-05-06 13:57 | 26.16956 | 50.87185 | 3820 ft | 268 kts | 282° |
| 2026-05-06 13:57 | 26.17331 | 50.85222 | 3472 ft | 251 kts | 281° |
| 2026-05-06 13:57 | 26.17654 | 50.83404 | 3327 ft | 228 kts | 281° |
| 2026-05-06 13:58 | 26.17941 | 50.81700 | 3196 ft | 225 kts | 280° |
| 2026-05-06 13:58 | 26.18228 | 50.79956 | 2968 ft | 233 kts | 280° |
| 2026-05-06 13:58 | 26.18553 | 50.78215 | 2628 ft | 224 kts | 290° |
| 2026-05-06 13:58 | 26.19304 | 50.76745 | 2359 ft | 214 kts | 305° |
| 2026-05-06 13:59 | 26.20121 | 50.75390 | 2076 ft | 208 kts | 303° |
| 2026-05-06 13:59 | 26.20890 | 50.74072 | 1815 ft | 197 kts | 303° |
| 2026-05-06 13:59 | 26.21604 | 50.72841 | 1617 ft | 181 kts | 303° |
| 2026-05-06 13:59 | 26.22267 | 50.71700 | 1527 ft | 169 kts | 303° |
| 2026-05-06 14:00 | 26.22897 | 50.70613 | 1148 ft | 165 kts | 304° |
| 2026-05-06 14:00 | 26.23468 | 50.69600 | 886 ft | 145 kts | 304° |
| 2026-05-06 14:00 | 26.23969 | 50.68701 | 809 ft | 137 kts | 303° |
| 2026-05-06 14:00 | 26.24498 | 50.67759 | 635 ft | 152 kts | 306° |
| 2026-05-06 14:01 | 26.25023 | 50.66767 | 425 ft | 138 kts | 310° |
| 2026-05-06 14:01 | 26.25549 | 50.65964 | 254 ft | 121 kts | 308° |
| 2026-05-06 14:01 | 26.26048 | 50.65140 | 122 ft | 130 kts | 305° |
| 2026-05-06 14:01 | 26.26528 | 50.64311 | 29 ft | 121 kts | 303° |
| 2026-05-06 14:02 | 26.26927 | 50.63634 | 24 ft | 83 kts | 302° |
| 2026-05-06 14:02 | 26.27166 | 50.63222 | 25 ft | 44 kts | 304° |
| 2026-05-06 14:02 | 26.27249 | 50.62967 | 24 ft | 32 kts | 275° |
| 2026-05-06 14:02 | 26.27254 | 50.62889 | 25 ft | 1 kts | 274° |
| 2026-05-06 14:03 | 26.27254 | 50.62881 | 25 ft | 1 kts | 274° |
| 2026-05-06 14:03 | 26.27255 | 50.62872 | 25 ft | 1 kts | 274° |
| 2026-05-06 14:03 | 26.27259 | 50.62800 | 30 ft | 18 kts | 274° |
| 2026-05-06 14:03 | 26.27310 | 50.62635 | 27 ft | 27 kts | 303° |
| 2026-05-06 14:04 | 26.27418 | 50.62445 | 28 ft | 27 kts | 303° |
| 2026-05-06 14:04 | 26.27518 | 50.62278 | 28 ft | 20 kts | 297° |
| 2026-05-06 14:04 | 26.27592 | 50.62147 | 27 ft | 17 kts | 301° |
| 2026-05-06 14:04 | 26.27584 | 50.62054 | 25 ft | 13 kts | 212° |
| 2026-05-06 14:05 | 26.27512 | 50.62049 | 29 ft | 10 kts | 189° |
| 2026-05-06 14:05 | 26.27464 | 50.62019 | 26 ft | 5 kts | 212° |
| 2026-05-06 14:05 | 26.27450 | 50.62009 | 27 ft | 0 kts | 212° |
| 2026-05-06 14:07 | 26.27445 | 50.62005 | 24 ft | 0 kts | 212° |
| 2026-05-06 14:08 | 26.27452 | 50.62010 | 27 ft | 0 kts | 212° |